Latest Weather Observations for Trangie

IDN60801

Issued at 12:32 pm EDT Friday 20 January 2017 (issued every 30 minutes, with the page automatically refreshed every 10 minutes)

About weather observations | Map of weather stations | Latest weather observations for NSW | Other Formats
Station Details ID: 051049 Name: TRANGIE RESEARCH STATION AWS Lat: -31.99 Lon: 147.95 Height: 215.0 m
Data from the previous 72 hours. | See also: Recent months at Trangie
Date/Time
EDT
Temp
°C
App
Temp
°C
Dew
Point
°C
Rel
Hum
%
Delta-T
°C
Wind Press
QNH
hPa
Press
MSL
hPa
Rain since
9am
mm
Dir  Spd
km/h
Gust
km/h
Spd
kts
Gust
kts
20/12:30pm 25.4 25.1 22.5 84 2.0 WNW 28 41 15 22 1003.1 1001.9 1.6
20/12:03pm 28.1 25.7 22.6 72 3.8 WNW 39 57 21 31 1002.9 1001.7 1.6
20/12:00pm 28.1 25.4 22.6 72 3.8 WNW 41 57 22 31 1002.9 1001.7 1.6
20/11:30am 28.4 25.4 22.2 69 4.2 WNW 41 61 22 33 1002.9 1001.7 1.6
20/11:21am 28.1 24.4 21.6 68 4.4 WNW 43 63 23 34 1002.9 1001.7 1.6
20/11:06am 28.8 27.8 23.7 74 3.5 NW 35 54 19 29 1002.5 1001.3 1.6
20/11:00am 28.3 28.2 24.3 79 2.8 NW 32 43 17 23 1002.6 1001.4 1.6
20/10:30am 26.1 27.3 23.8 87 1.6 N 24 35 13 19 1002.5 1001.3 1.6
20/10:00am 24.9 25.9 23.5 92 1.0 N 24 33 13 18 1002.5 1001.3 1.6
20/09:30am 25.8 24.5 22.5 82 2.2 N 33 50 18 27 1002.7 1001.5 0.4
20/09:12am 27.6 27.1 22.1 72 3.7 N 28 46 15 25 1001.9 1000.6 0.0
20/09:00am 26.6 25.8 22.4 78 2.9 N 30 46 16 25 1001.5 1000.2 1.4
20/08:51am 25.8 25.3 22.1 80 2.5 N 28 46 15 25 1001.9 1000.6 1.4
20/08:30am 27.7 27.2 21.5 69 4.2 N 26 43 14 23 1002.0 1000.8 0.0
20/08:00am 27.1 27.3 21.4 71 3.8 N 22 39 12 21 1002.2 1001.0 0.0
20/07:30am 26.7 26.6 21.5 73 3.5 N 24 41 13 22 1001.9 1000.6 0.0
20/07:00am 26.5 26.4 21.5 74 3.4 N 24 39 13 21 1001.9 1000.6 0.0
20/06:30am 26.4 27.1 21.6 75 3.2 N 20 33 11 18 1002.2 1001.0 0.0
20/06:00am 26.2 27.1 21.6 76 3.1 NNE 19 32 10 17 1001.9 1000.6 0.0
20/05:30am 26.4 27.2 21.4 74 3.3 NNE 19 35 10 19 1001.6 1000.3 0.0
20/05:00am 25.1 25.9 19.0 69 3.9 NE 13 17 7 9 1001.8 1000.5 0.0
20/04:30am 23.8 23.6 16.8 65 4.3 ENE 13 17 7 9 1001.9 1000.6 0.0
20/04:00am 23.7 23.3 16.2 63 4.6 E 13 19 7 10 1002.1 1000.9 0.0
20/03:30am 23.8 23.0 16.1 62 4.7 E 15 22 8 12 1002.6 1001.4 0.0
20/03:00am 24.0 23.2 16.0 61 4.9 ENE 15 26 8 14 1003.2 1002.0 0.0
20/02:30am 24.2 23.0 16.2 61 4.9 E 17 28 9 15 1003.4 1002.2 0.0
20/02:00am 24.6 23.8 16.1 59 5.2 E 15 24 8 13 1003.6 1002.3 0.0
20/01:30am 25.4 24.2 16.0 56 5.8 E 17 24 9 13 1004.0 1002.7 0.0
20/01:00am 26.2 25.8 16.2 54 6.2 E 13 26 7 14 1004.0 1002.7 0.0
20/12:30am 27.1 26.3 16.1 51 6.8 E 15 24 8 13 1004.3 1003.0 0.0
20/12:00am 27.8 27.5 16.4 50 7.1 E 13 20 7 11 1004.2 1002.9 0.0
 
Date/Time
EDT
Temp
°C
App
Temp
°C
Dew
Point
°C
Rel
Hum
%
Delta-T
°C
Wind Press
QNH
hPa
Press
MSL
hPa
Rain since
9am
mm
Dir  Spd
km/h
Gust
km/h
Spd
kts
Gust
kts
19/11:30pm 28.3 27.9 16.2 47 7.6 ENE 13 20 7 11 1004.4 1003.1 0.0
19/11:00pm 29.3 28.6 16.5 46 8.1 NE 15 22 8 12 1004.5 1003.2 0.0
19/10:30pm 30.0 30.2 16.8 45 8.4 NE 11 17 6 9 1004.7 1003.4 0.0
19/10:00pm 30.9 30.2 16.5 42 9.1 ENE 15 26 8 14 1004.4 1003.1 0.0
19/09:30pm 30.6 31.8 17.3 45 8.5 ENE 7 11 4 6 1004.4 1003.1 0.0
19/09:00pm 31.0 32.7 18.0 45 8.4 ENE 6 7 3 4 1004.4 1003.1 0.0
19/08:30pm 32.3 34.6 17.7 41 9.4 E 2 6 1 3 1004.3 1003.0 0.0
19/08:00pm 33.9 35.0 17.2 37 10.8 NE 7 11 4 6 1004.1 1002.8 0.0
19/07:30pm 35.5 36.7 16.8 33 12.1 ENE 6 9 3 5 1004.1 1002.8 0.0
19/07:00pm 36.2 37.2 16.4 31 12.8 E 6 9 3 5 1004.2 1002.9 0.0
19/06:30pm 36.6 37.2 16.7 30 12.9 SE 9 15 5 8 1004.2 1002.9 0.0
19/06:00pm 36.8 37.2 16.4 30 13.2 SE 9 15 5 8 1004.4 1003.1 0.0
19/05:30pm 37.7 38.4 17.1 29 13.4 WSW 9 15 5 8 1004.8 1003.5 0.0
19/05:00pm 37.4 37.1 16.4 29 13.6 W 13 20 7 11 1005.4 1004.1 0.0
19/04:30pm 37.7 38.4 17.1 29 13.4 WNW 9 15 5 8 1005.9 1004.6 0.0
19/04:00pm 37.2 37.8 16.7 29 13.3 NE 9 17 5 9 1006.4 1005.2 0.0
19/03:30pm 37.0 37.9 16.5 29 13.2 NNW 7 20 4 11 1006.9 1005.7 0.0
19/03:00pm 36.1 37.5 17.7 33 12.1 WNW 7 15 4 8 1007.3 1006.1 0.0
19/02:30pm 35.7 36.6 18.3 35 11.5 WNW 11 15 6 8 1007.8 1006.6 0.0
19/02:00pm 35.2 36.2 18.7 37 10.9 ENE 11 17 6 9 1008.3 1007.1 0.0
19/01:30pm 34.3 35.5 19.1 40 10.1 ENE 11 20 6 11 1008.7 1007.4 0.0
19/01:00pm 33.5 34.2 18.8 41 9.7 NE 13 19 7 10 1009.3 1008.0 0.0
19/12:30pm 33.7 35.4 20.1 44 9.1 ENE 11 20 6 11 1009.6 1008.3 0.0
19/12:00pm 31.7 32.6 19.3 47 8.2 ENE 13 22 7 12 1009.9 1008.6 0.0
19/11:30am 30.5 30.9 18.9 50 7.6 NE 15 24 8 13 1010.3 1009.1 0.0
19/11:00am 30.0 30.1 19.1 52 7.1 NE 17 24 9 13 1010.6 1009.4 0.0
19/10:30am 29.1 29.3 18.5 52 6.9 E 15 24 8 13 1010.7 1009.5 0.0
19/10:00am 27.8 28.0 18.5 57 6.0 ENE 15 22 8 12 1010.9 1009.7 0.0
19/09:30am 26.9 26.3 18.5 60 5.4 ENE 19 28 10 15 1010.6 1009.4 0.0
19/09:00am 26.1 26.4 18.8 64 4.7 E 15 28 8 15 1010.8 1009.6 7.0
19/08:30am 24.7 24.7 18.2 67 4.1 E 15 28 8 15 1010.7 1009.5 7.0
19/08:00am 23.9 23.6 18.3 71 3.6 E 17 26 9 14 1010.5 1009.3 7.0
19/07:30am 23.0 23.6 18.5 76 2.9 E 13 24 7 13 1010.3 1009.1 7.0
19/07:00am 21.9 22.9 18.7 82 2.0 E 11 19 6 10 1010.1 1008.8 7.0
19/06:30am 21.6 22.5 18.4 82 2.0 ESE 11 19 6 10 1009.8 1008.5 7.0
19/06:00am 21.7 22.6 18.5 82 2.0 ESE 11 19 6 10 1009.5 1008.2 7.0
19/05:30am 21.9 23.0 18.9 83 1.9 ESE 11 17 6 9 1009.2 1007.9 7.0
19/05:00am 21.8 23.3 18.8 83 1.9 ESE 9 15 5 8 1008.8 1007.5 7.0
19/04:30am 22.4 23.9 19.0 81 2.2 ESE 9 17 5 9 1008.8 1007.5 7.0
19/04:00am 22.9 24.6 19.3 80 2.3 E 9 17 5 9 1008.9 1007.6 7.0
19/03:30am 22.7 24.4 19.3 81 2.2 ESE 9 15 5 8 1008.9 1007.6 7.0
19/03:00am 22.7 24.9 19.3 81 2.2 ESE 6 9 3 5 1009.2 1007.9 7.0
19/02:30am 23.3 25.2 19.7 80 2.3 E 9 13 5 7 1009.2 1007.9 7.0
19/02:00am 23.4 25.4 20.0 81 2.2 ENE 9 17 5 9 1009.5 1008.2 7.0
19/01:30am 23.5 25.6 20.2 82 2.2 ENE 9 17 5 9 1009.5 1008.2 7.0
19/01:00am 23.4 24.2 20.7 85 1.8 E 17 26 9 14 1009.9 1008.6 7.0
19/12:30am 23.6 26.2 20.5 83 2.0 NNE 7 9 4 5 1009.7 1008.4 7.0
19/12:00am 23.8 26.4 20.5 82 2.2 NNE 7 9 4 5 1010.1 1008.8 7.0
 
Date/Time
EDT
Temp
°C
App
Temp
°C
Dew
Point
°C
Rel
Hum
%
Delta-T
°C
Wind Press
QNH
hPa
Press
MSL
hPa
Rain since
9am
mm
Dir  Spd
km/h
Gust
km/h
Spd
kts
Gust
kts
18/11:30pm 24.3 27.2 20.6 80 2.4 NNE 6 9 3 5 1010.3 1009.1 7.0
18/11:00pm 24.2 27.1 20.7 81 2.3 ENE 6 9 3 5 1010.4 1009.2 7.0
18/10:30pm 24.9 27.3 20.8 78 2.7 NNE 9 13 5 7 1010.5 1009.3 7.0
18/10:00pm 25.2 27.7 21.1 78 2.7 NNE 9 17 5 9 1010.5 1009.3 7.0
18/09:30pm 25.6 28.3 21.3 77 2.9 NE 9 15 5 8 1010.3 1009.1 7.0
18/09:00pm 25.8 28.4 21.2 76 3.1 NNE 9 13 5 7 1009.7 1008.4 7.0
18/08:30pm 26.5 28.8 21.3 73 3.5 NE 11 17 6 9 1009.4 1008.1 7.0
18/08:00pm 26.7 28.4 21.0 71 3.8 NNE 13 20 7 11 1009.1 1007.8 7.0
18/07:30pm 27.6 28.1 20.9 67 4.5 NNE 19 28 10 15 1008.1 1006.9 7.0
18/07:00pm 30.5 31.7 20.7 55 6.6 NNE 15 20 8 11 1007.5 1006.3 7.0
18/06:30pm 31.0 31.3 20.3 53 7.1 N 19 30 10 16 1006.6 1005.4 7.0
18/06:00pm 31.2 30.6 20.5 53 7.2 N 24 35 13 19 1006.3 1005.1 7.0
18/05:30pm 31.1 29.8 20.7 54 7.0 NNW 28 35 15 19 1005.9 1004.6 7.0
18/05:00pm 29.8 31.6 21.2 60 5.8 N 13 19 7 10 1006.0 1004.7 7.0
18/04:30pm 31.3 32.1 21.8 57 6.5 N 20 28 11 15 1005.5 1004.2 7.0
18/04:00pm 29.2 29.2 21.7 64 5.1 N 24 35 13 19 1006.3 1005.1 7.0
18/03:30pm 30.1 32.3 23.3 67 4.7 NNE 17 28 9 15 1006.6 1005.4 7.0
18/03:00pm 27.7 28.0 21.5 69 4.2 WNW 22 33 12 18 1007.4 1006.2 6.8
18/02:49pm 26.9 23.3 18.5 60 5.4 WNW 35 78 19 42 1007.9 1006.7 3.8
18/02:48pm 26.7 23.0 19.1 63 4.9 WNW 37 78 20 42 1008.5 1007.2 3.4
18/02:46pm 27.3 24.6 19.6 62 5.0 NW 33 56 18 30 1008.6 1007.3 2.6
18/02:32pm 32.4 30.3 18.9 44 8.9 WNW 28 54 15 29 1008.0 1006.8 0.0
18/02:30pm 33.5 32.0 20.3 46 8.9 NW 28 48 15 26 1008.0 1006.8 0.0
18/02:24pm 35.6 32.1 18.7 37 11.2 NW 35 48 19 26 1008.0 1006.8 0.0
18/02:16pm 37.7 35.7 18.2 32 12.9 NNW 26 46 14 25 1007.3 1006.1 0.0
18/02:00pm 39.3 37.9 18.0 29 14.1 WNW 22 35 12 19 1007.6 1006.4 0.0
18/01:38pm 40.3 37.7 17.7 26 14.9 NW 28 46 15 25 1008.0 1006.8 0.0
18/01:30pm 40.2 37.8 18.2 27 14.6 NW 28 41 15 22 1008.2 1007.0 0.0
18/01:00pm 41.1 39.4 18.9 27 15.0 WNW 26 39 14 21 1008.8 1007.5 0.0
18/12:30pm 40.1 38.5 19.2 29 14.1 NW 26 43 14 23 1009.3 1008.0 0.0
18/12:00pm 39.3 37.5 19.5 31 13.4 NW 28 44 15 24 1009.5 1008.2 0.0
18/11:30am 37.3 34.0 18.3 32 12.6 NNW 33 48 18 26 1009.9 1008.6 0.0
18/11:01am 36.7 33.2 17.8 32 12.4 NNW 33 54 18 29 1010.2 1008.9 0.0
18/11:00am 36.6 32.8 17.2 31 12.6 NNW 33 48 18 26 1010.2 1008.9 0.0
18/10:30am 36.5 32.7 18.1 33 12.1 NNW 35 46 19 25 1010.3 1009.1 0.0
18/10:00am 34.7 30.2 17.4 35 11.2 NW 37 48 20 26 1010.5 1009.3 0.0
18/09:54am 34.9 31.3 17.6 35 11.3 NW 33 48 18 26 1010.5 1009.3 0.0
18/09:30am 33.7 31.3 17.4 37 10.5 N 26 33 14 18 1010.6 1009.4 0.0
18/09:00am 32.7 30.9 16.9 38 10.1 N 22 33 12 18 1010.6 1009.4 0.0
18/08:30am 31.7 28.5 16.4 39 9.7 N 28 35 15 19 1010.5 1009.3 0.0
18/08:00am 30.6 28.3 16.6 43 8.9 N 24 35 13 19 1010.4 1009.2 0.0
18/07:30am 29.2 28.2 16.7 46 7.9 N 17 22 9 12 1010.4 1009.2 0.0
18/07:00am 28.5 27.7 16.1 47 7.7 N 15 22 8 12 1010.2 1008.9 0.0
18/06:30am 28.2 27.5 16.5 49 7.3 N 15 22 8 12 1009.8 1008.5 0.0
18/06:00am 28.6 28.2 16.2 47 7.8 N 13 19 7 10 1009.2 1007.9 0.0
18/05:30am 29.8 28.1 16.2 43 8.5 N 20 30 11 16 1009.0 1007.7 0.0
18/05:00am 29.9 28.1 15.6 42 8.9 N 19 26 10 14 1008.8 1007.5 0.0
18/04:30am 30.5 28.7 15.4 40 9.4 N 19 24 10 13 1008.3 1007.1 0.0
18/04:00am 31.3 28.1 15.3 38 10.0 N 26 37 14 20 1008.2 1007.0 0.0
18/03:30am 30.7 27.5 16.3 42 9.1 N 28 43 15 23 1008.5 1007.2 0.0
18/03:00am 31.7 26.8 15.2 36 10.3 NNW 35 48 19 26 1008.7 1007.4 0.0
18/02:33am 32.3 27.6 14.9 35 10.8 NW 33 52 18 28 1008.9 1007.6 0.0
18/02:30am 32.7 28.2 14.8 34 11.1 NW 32 48 17 26 1008.8 1007.5 0.0
18/02:29am 32.8 28.3 14.9 34 11.1 NNW 32 48 17 26 1008.8 1007.5 0.0
18/02:00am 32.4 29.7 13.6 32 11.5 NNW 20 30 11 16 1008.9 1007.6 0.0
18/01:30am 32.0 30.1 14.2 34 10.9 N 17 24 9 13 1008.9 1007.6 0.0
18/01:00am 32.2 30.5 14.8 35 10.8 N 17 20 9 11 1009.1 1007.8 0.0
18/12:30am 32.4 30.6 14.5 33 11.1 N 17 24 9 13 1009.1 1007.8 0.0
18/12:00am 32.7 31.4 14.8 34 11.1 N 15 22 8 12 1009.2 1007.9 0.0
 
Date/Time
EDT
Temp
°C
App
Temp
°C
Dew
Point
°C
Rel
Hum
%
Delta-T
°C
Wind Press
QNH
hPa
Press
MSL
hPa
Rain since
9am
mm
Dir  Spd
km/h
Gust
km/h
Spd
kts
Gust
kts
17/11:30pm 32.5 31.7 15.1 35 10.8 N 13 19 7 10 1009.4 1008.1 0.0
17/11:00pm 32.5 31.7 15.1 35 10.9 N 13 15 7 8 1009.5 1008.2 0.0
17/10:30pm 33.0 32.2 15.0 33 11.2 N 13 17 7 9 1009.5 1008.2 0.0
17/10:00pm 33.5 33.0 15.0 32 11.6 N 11 15 6 8 1009.4 1008.1 0.0
17/09:30pm 33.8 33.4 15.3 33 11.6 N 11 15 6 8 1009.2 1007.9 0.0
17/09:00pm 34.5 34.4 14.9 31 12.3 N 9 13 5 7 1008.9 1007.6 0.0
17/08:30pm 35.6 35.1 14.8 28 13.0 N 11 15 6 8 1008.7 1007.4 0.0
17/08:00pm 37.1 36.3 15.0 27 14.0 N 13 20 7 11 1008.6 1007.3 0.0
17/07:30pm 38.2 35.9 14.7 24 14.8 N 20 28 11 15 1008.5 1007.2 0.0
17/07:00pm 38.9 37.0 15.3 25 15.1 N 19 28 10 15 1008.5 1007.2 0.0
17/06:30pm 39.4 37.3 15.1 24 15.5 N 20 32 11 17 1008.6 1007.3 0.0
17/06:00pm 39.6 36.9 14.6 23 15.9 N 22 33 12 18 1008.7 1007.4 0.0
17/05:30pm 40.2 38.3 15.1 23 16.0 N 19 26 10 14 1008.9 1007.6 0.0
17/05:00pm 40.1 38.4 15.7 24 15.7 N 19 32 10 17 1009.1 1007.8 0.0
17/04:30pm 39.7 36.4 14.0 22 16.2 NNW 24 35 13 19 1009.5 1008.2 0.0
17/04:00pm 41.0 39.1 15.7 22 16.4 NNW 20 37 11 20 1009.8 1008.5 0.0
17/03:30pm 40.7 38.2 14.1 21 16.8 NNW 20 35 11 19 1010.2 1008.9 0.0
17/03:00pm 40.8 38.5 15.6 23 16.3 NW 22 32 12 17 1010.6 1009.4 0.0
17/02:30pm 39.8 37.6 14.8 23 15.9 N 20 35 11 19 1010.9 1009.7 0.0
17/02:00pm 39.3 37.0 15.6 24 15.2 N 22 33 12 18 1011.2 1010.0 0.0
17/01:30pm 39.6 37.6 16.5 25 15.0 N 22 33 12 18 1011.9 1010.7 0.0
17/01:00pm 38.0 36.0 17.4 29 13.5 N 24 37 13 20 1012.5 1011.3 0.0

Other Formats:

Comma delimited format used in spreadsheet applications
http://www.bom.gov.au/fwo/IDN60801/IDN60801.95710.axf

JavaScript Object Notation format (JSON) in row-major order
http://www.bom.gov.au/fwo/IDN60801/IDN60801.95710.json